sensor_id;sensor_type;location;lat;lon;timestamp;P1;durP1;ratioP1;P2;durP2;ratioP2
32788;SDS011;19141;48.980;8.410;2022-07-21T04:22:45;21.42;;;13.55;;
32788;SDS011;19141;48.980;8.410;2022-07-21T04:25:11;23.65;;;14.65;;
32788;SDS011;19141;48.980;8.410;2022-07-21T04:27:37;22.25;;;15.95;;
32788;SDS011;19141;48.980;8.410;2022-07-21T04:30:03;24.63;;;16.38;;
32788;SDS011;19141;48.980;8.410;2022-07-21T04:32:31;21.98;;;14.93;;
32788;SDS011;19141;48.980;8.410;2022-07-21T04:34:56;23.30;;;15.20;;
32788;SDS011;19141;48.980;8.410;2022-07-21T04:37:22;24.65;;;14.85;;
32788;SDS011;19141;48.980;8.410;2022-07-21T04:39:48;18.55;;;14.38;;
32788;SDS011;19141;48.980;8.410;2022-07-21T04:42:14;22.10;;;15.48;;
32788;SDS011;19141;48.980;8.410;2022-07-21T04:44:39;24.15;;;16.27;;
32788;SDS011;19141;48.980;8.410;2022-07-21T04:47:05;23.88;;;15.85;;
32788;SDS011;19141;48.980;8.410;2022-07-21T04:49:30;26.77;;;16.02;;
32788;SDS011;19141;48.980;8.410;2022-07-21T04:51:56;24.90;;;16.23;;
32788;SDS011;19141;48.980;8.410;2022-07-21T04:54:21;26.15;;;15.43;;
32788;SDS011;19141;48.980;8.410;2022-07-21T04:56:47;24.92;;;16.80;;
32788;SDS011;19141;48.980;8.410;2022-07-21T04:59:13;26.40;;;16.40;;
32788;SDS011;19141;48.980;8.410;2022-07-21T05:01:39;23.33;;;15.05;;
32788;SDS011;19141;48.980;8.410;2022-07-21T05:04:05;22.67;;;16.10;;
32788;SDS011;19141;48.980;8.410;2022-07-21T05:06:30;21.65;;;15.85;;
32788;SDS011;19141;48.980;8.410;2022-07-21T05:08:56;22.50;;;16.55;;
32788;SDS011;19141;48.980;8.410;2022-07-21T05:11:22;21.08;;;14.73;;
32788;SDS011;19141;48.980;8.410;2022-07-21T05:13:47;20.35;;;15.68;;
32788;SDS011;19141;48.980;8.410;2022-07-21T05:16:13;22.73;;;15.32;;
32788;SDS011;19141;48.980;8.410;2022-07-21T05:18:38;21.40;;;15.32;;
32788;SDS011;19141;48.980;8.410;2022-07-21T05:21:04;22.08;;;14.88;;
32788;SDS011;19141;48.980;8.410;2022-07-21T05:23:29;23.48;;;15.45;;
32788;SDS011;19141;48.980;8.410;2022-07-21T05:25:55;21.35;;;14.40;;
32788;SDS011;19141;48.980;8.410;2022-07-21T05:28:20;25.55;;;17.58;;
32788;SDS011;19141;48.980;8.410;2022-07-21T05:30:46;22.88;;;15.32;;
32788;SDS011;19141;48.980;8.410;2022-07-21T05:33:11;25.52;;;15.88;;
32788;SDS011;19141;48.980;8.410;2022-07-21T05:35:37;24.58;;;15.77;;
32788;SDS011;19141;48.980;8.410;2022-07-21T05:38:02;24.65;;;15.27;;
32788;SDS011;19141;48.980;8.410;2022-07-21T05:40:28;26.67;;;16.15;;
32788;SDS011;19141;48.980;8.410;2022-07-21T05:42:53;24.85;;;16.45;;
32788;SDS011;19141;48.980;8.410;2022-07-21T05:45:19;23.75;;;15.95;;
32788;SDS011;19141;48.980;8.410;2022-07-21T05:47:44;23.67;;;16.67;;
32788;SDS011;19141;48.980;8.410;2022-07-21T05:50:10;26.05;;;15.82;;
32788;SDS011;19141;48.980;8.410;2022-07-21T05:52:37;23.60;;;15.60;;
32788;SDS011;19141;48.980;8.410;2022-07-21T05:55:03;25.73;;;15.10;;
32788;SDS011;19141;48.980;8.410;2022-07-21T05:57:29;23.50;;;15.88;;
32788;SDS011;19141;48.980;8.410;2022-07-21T05:59:54;25.17;;;16.50;;
32788;SDS011;19141;48.980;8.410;2022-07-21T06:02:20;26.15;;;16.95;;
32788;SDS011;19141;48.980;8.410;2022-07-21T06:04:46;24.77;;;15.40;;
32788;SDS011;19141;48.980;8.410;2022-07-21T06:07:11;28.60;;;17.20;;
32788;SDS011;19141;48.980;8.410;2022-07-21T06:09:37;30.90;;;18.63;;
32788;SDS011;19141;48.980;8.410;2022-07-21T06:12:02;23.05;;;16.33;;
32788;SDS011;19141;48.980;8.410;2022-07-21T06:14:28;26.05;;;16.58;;
32788;SDS011;19141;48.980;8.410;2022-07-21T06:16:54;24.45;;;15.50;;
32788;SDS011;19141;48.980;8.410;2022-07-21T06:19:20;24.35;;;15.73;;
32788;SDS011;19141;48.980;8.410;2022-07-21T06:21:45;25.08;;;15.63;;
32788;SDS011;19141;48.980;8.410;2022-07-21T06:24:11;21.92;;;14.15;;
32788;SDS011;19141;48.980;8.410;2022-07-21T06:26:36;20.48;;;13.10;;
32788;SDS011;19141;48.980;8.410;2022-07-21T06:29:03;20.15;;;13.57;;
32788;SDS011;19141;48.980;8.410;2022-07-21T06:31:29;20.15;;;12.73;;
32788;SDS011;19141;48.980;8.410;2022-07-21T06:33:54;23.25;;;13.20;;
32788;SDS011;19141;48.980;8.410;2022-07-21T06:36:20;23.23;;;12.80;;
32788;SDS011;19141;48.980;8.410;2022-07-21T06:38:45;18.10;;;11.25;;
32788;SDS011;19141;48.980;8.410;2022-07-21T06:41:11;17.45;;;11.23;;
32788;SDS011;19141;48.980;8.410;2022-07-21T06:43:37;15.40;;;10.85;;
32788;SDS011;19141;48.980;8.410;2022-07-21T06:46:03;16.92;;;11.07;;
32788;SDS011;19141;48.980;8.410;2022-07-21T06:48:29;15.35;;;10.50;;
32788;SDS011;19141;48.980;8.410;2022-07-21T06:50:55;16.25;;;10.75;;
32788;SDS011;19141;48.980;8.410;2022-07-21T06:53:21;20.92;;;11.77;;
32788;SDS011;19141;48.980;8.410;2022-07-21T06:55:48;18.10;;;11.20;;
32788;SDS011;19141;48.980;8.410;2022-07-21T06:58:17;14.38;;;10.52;;
32788;SDS011;19141;48.980;8.410;2022-07-21T07:00:45;17.15;;;10.32;;
32788;SDS011;19141;48.980;8.410;2022-07-21T07:03:11;15.27;;;11.27;;
32788;SDS011;19141;48.980;8.410;2022-07-21T07:05:37;17.85;;;10.95;;
32788;SDS011;19141;48.980;8.410;2022-07-21T07:08:03;15.75;;;10.52;;
32788;SDS011;19141;48.980;8.410;2022-07-21T07:10:29;18.95;;;11.18;;
32788;SDS011;19141;48.980;8.410;2022-07-21T07:12:54;16.77;;;11.30;;
32788;SDS011;19141;48.980;8.410;2022-07-21T07:15:21;16.23;;;10.35;;
32788;SDS011;19141;48.980;8.410;2022-07-21T07:17:47;17.10;;;10.98;;
32788;SDS011;19141;48.980;8.410;2022-07-21T07:20:14;18.48;;;11.15;;
32788;SDS011;19141;48.980;8.410;2022-07-21T07:22:39;16.67;;;11.02;;
32788;SDS011;19141;48.980;8.410;2022-07-21T07:25:05;15.07;;;10.48;;
32788;SDS011;19141;48.980;8.410;2022-07-21T07:27:31;22.50;;;11.57;;
32788;SDS011;19141;48.980;8.410;2022-07-21T07:29:56;16.92;;;10.93;;
32788;SDS011;19141;48.980;8.410;2022-07-21T07:32:22;16.58;;;10.60;;
32788;SDS011;19141;48.980;8.410;2022-07-21T07:34:47;16.77;;;10.90;;
32788;SDS011;19141;48.980;8.410;2022-07-21T07:37:12;14.65;;;10.65;;
32788;SDS011;19141;48.980;8.410;2022-07-21T07:39:38;14.45;;;10.23;;
32788;SDS011;19141;48.980;8.410;2022-07-21T07:42:05;19.67;;;10.45;;
32788;SDS011;19141;48.980;8.410;2022-07-21T07:44:30;14.45;;;9.30;;
32788;SDS011;19141;48.980;8.410;2022-07-21T07:46:56;16.65;;;9.93;;
32788;SDS011;19141;48.980;8.410;2022-07-21T07:49:22;15.77;;;9.68;;
32788;SDS011;19141;48.980;8.410;2022-07-21T07:51:47;14.80;;;9.45;;
32788;SDS011;19141;48.980;8.410;2022-07-21T07:54:13;14.25;;;10.27;;
32788;SDS011;19141;48.980;8.410;2022-07-21T07:56:39;15.52;;;9.57;;
32788;SDS011;19141;48.980;8.410;2022-07-21T07:59:05;16.23;;;10.30;;
32788;SDS011;19141;48.980;8.410;2022-07-21T08:01:30;14.63;;;9.43;;
32788;SDS011;19141;48.980;8.410;2022-07-21T08:03:56;17.50;;;10.07;;
32788;SDS011;19141;48.980;8.410;2022-07-21T08:06:21;15.13;;;10.60;;
32788;SDS011;19141;48.980;8.410;2022-07-21T08:08:47;14.43;;;10.52;;
32788;SDS011;19141;48.980;8.410;2022-07-21T08:11:13;14.07;;;10.02;;
32788;SDS011;19141;48.980;8.410;2022-07-21T08:13:39;15.65;;;10.38;;
32788;SDS011;19141;48.980;8.410;2022-07-21T08:16:05;16.50;;;10.95;;
32788;SDS011;19141;48.980;8.410;2022-07-21T08:18:30;14.52;;;10.07;;
32788;SDS011;19141;48.980;8.410;2022-07-21T08:20:56;15.65;;;10.60;;
32788;SDS011;19141;48.980;8.410;2022-07-21T08:23:21;13.77;;;10.23;;
32788;SDS011;19141;48.980;8.410;2022-07-21T08:25:47;14.40;;;9.70;;
32788;SDS011;19141;48.980;8.410;2022-07-21T08:28:12;13.95;;;10.07;;
32788;SDS011;19141;48.980;8.410;2022-07-21T08:30:38;16.80;;;11.02;;
32788;SDS011;19141;48.980;8.410;2022-07-21T08:33:04;15.65;;;10.40;;
32788;SDS011;19141;48.980;8.410;2022-07-21T08:35:30;16.63;;;9.83;;
32788;SDS011;19141;48.980;8.410;2022-07-21T08:37:58;15.50;;;10.93;;
32788;SDS011;19141;48.980;8.410;2022-07-21T08:40:28;17.20;;;11.30;;
32788;SDS011;19141;48.980;8.410;2022-07-21T08:42:56;16.80;;;11.50;;
32788;SDS011;19141;48.980;8.410;2022-07-21T08:45:22;17.00;;;10.40;;
32788;SDS011;19141;48.980;8.410;2022-07-21T08:47:51;16.50;;;10.88;;
32788;SDS011;19141;48.980;8.410;2022-07-21T08:50:18;18.30;;;11.63;;
32788;SDS011;19141;48.980;8.410;2022-07-21T08:52:44;16.85;;;11.00;;
32788;SDS011;19141;48.980;8.410;2022-07-21T08:55:10;17.70;;;11.93;;
32788;SDS011;19141;48.980;8.410;2022-07-21T08:57:37;17.55;;;11.30;;
32788;SDS011;19141;48.980;8.410;2022-07-21T09:00:04;16.00;;;11.10;;
32788;SDS011;19141;48.980;8.410;2022-07-21T09:02:32;16.48;;;11.10;;
32788;SDS011;19141;48.980;8.410;2022-07-21T09:04:59;16.48;;;11.23;;
32788;SDS011;19141;48.980;8.410;2022-07-21T09:07:25;15.33;;;10.30;;
32788;SDS011;19141;48.980;8.410;2022-07-21T09:09:58;18.23;;;10.65;;
32788;SDS011;19141;48.980;8.410;2022-07-21T09:12:25;13.80;;;9.70;;
32788;SDS011;19141;48.980;8.410;2022-07-21T09:14:52;14.07;;;9.90;;
32788;SDS011;19141;48.980;8.410;2022-07-21T09:17:36;13.00;;;9.00;;
32788;SDS011;19141;48.980;8.410;2022-07-21T09:20:02;13.70;;;9.43;;
32788;SDS011;19141;48.980;8.410;2022-07-21T09:22:27;14.55;;;8.88;;
32788;SDS011;19141;48.980;8.410;2022-07-21T09:24:54;10.73;;;8.55;;
32788;SDS011;19141;48.980;8.410;2022-07-21T09:27:23;12.48;;;8.50;;
32788;SDS011;19141;48.980;8.410;2022-07-21T09:29:51;13.80;;;8.40;;
32788;SDS011;19141;48.980;8.410;2022-07-21T09:32:23;10.77;;;7.45;;
32788;SDS011;19141;48.980;8.410;2022-07-21T09:35:06;7.28;;;6.15;;
32788;SDS011;19141;48.980;8.410;2022-07-21T09:37:35;9.85;;;7.53;;
32788;SDS011;19141;48.980;8.410;2022-07-21T09:40:03;9.45;;;7.20;;
32788;SDS011;19141;48.980;8.410;2022-07-21T09:42:38;9.40;;;7.00;;
32788;SDS011;19141;48.980;8.410;2022-07-21T09:45:12;9.38;;;7.57;;
32788;SDS011;19141;48.980;8.410;2022-07-21T09:47:40;11.68;;;7.80;;
32788;SDS011;19141;48.980;8.410;2022-07-21T09:50:08;10.02;;;7.00;;
32788;SDS011;19141;48.980;8.410;2022-07-21T09:52:39;11.13;;;6.78;;
32788;SDS011;19141;48.980;8.410;2022-07-21T09:55:08;7.93;;;6.55;;
32788;SDS011;19141;48.980;8.410;2022-07-21T09:57:42;8.95;;;6.63;;
32788;SDS011;19141;48.980;8.410;2022-07-21T10:00:13;9.27;;;7.25;;
32788;SDS011;19141;48.980;8.410;2022-07-21T10:02:42;11.77;;;8.18;;
32788;SDS011;19141;48.980;8.410;2022-07-21T10:05:09;9.57;;;7.55;;
32788;SDS011;19141;48.980;8.410;2022-07-21T10:07:38;9.82;;;7.60;;
32788;SDS011;19141;48.980;8.410;2022-07-21T10:10:05;10.48;;;7.13;;
32788;SDS011;19141;48.980;8.410;2022-07-21T10:12:31;10.27;;;7.43;;
32788;SDS011;19141;48.980;8.410;2022-07-21T10:14:57;9.50;;;5.97;;
32788;SDS011;19141;48.980;8.410;2022-07-21T10:17:23;7.35;;;6.00;;
32788;SDS011;19141;48.980;8.410;2022-07-21T10:25:09;9.43;;;5.85;;
32788;SDS011;19141;48.980;8.410;2022-07-21T10:27:35;8.68;;;6.13;;
32788;SDS011;19141;48.980;8.410;2022-07-21T10:30:01;6.47;;;5.43;;
32788;SDS011;19141;48.980;8.410;2022-07-21T10:32:36;8.93;;;5.07;;
32788;SDS011;19141;48.980;8.410;2022-07-21T10:35:26;7.63;;;5.47;;
32788;SDS011;19141;48.980;8.410;2022-07-21T10:37:55;5.65;;;5.00;;
32788;SDS011;19141;48.980;8.410;2022-07-21T10:45:30;5.05;;;4.53;;
32788;SDS011;19141;48.980;8.410;2022-07-21T10:48:01;5.38;;;4.20;;
32788;SDS011;19141;48.980;8.410;2022-07-21T10:50:35;4.57;;;3.67;;
32788;SDS011;19141;48.980;8.410;2022-07-21T10:53:03;6.18;;;4.38;;
32788;SDS011;19141;48.980;8.410;2022-07-21T10:55:36;3.92;;;3.50;;
32788;SDS011;19141;48.980;8.410;2022-07-21T11:01:40;4.28;;;3.50;;
32788;SDS011;19141;48.980;8.410;2022-07-21T11:03:38;3.70;;;3.20;;
32788;SDS011;19141;48.980;8.410;2022-07-21T11:08:31;3.83;;;2.92;;
32788;SDS011;19141;48.980;8.410;2022-07-21T11:11:08;3.85;;;2.97;;
32788;SDS011;19141;48.980;8.410;2022-07-21T11:22:15;3.97;;;2.45;;
32788;SDS011;19141;48.980;8.410;2022-07-21T11:24:42;4.88;;;2.78;;
32788;SDS011;19141;48.980;8.410;2022-07-21T11:27:29;3.15;;;2.55;;
32788;SDS011;19141;48.980;8.410;2022-07-21T11:29:57;4.85;;;2.50;;
32788;SDS011;19141;48.980;8.410;2022-07-21T11:32:24;3.30;;;2.53;;
32788;SDS011;19141;48.980;8.410;2022-07-21T11:34:51;4.00;;;2.70;;
32788;SDS011;19141;48.980;8.410;2022-07-21T11:37:26;3.83;;;2.80;;
32788;SDS011;19141;48.980;8.410;2022-07-21T11:39:57;4.05;;;2.63;;
32788;SDS011;19141;48.980;8.410;2022-07-21T11:42:24;3.65;;;3.20;;
32788;SDS011;19141;48.980;8.410;2022-07-21T11:44:50;2.72;;;2.53;;
32788;SDS011;19141;48.980;8.410;2022-07-21T11:47:17;3.37;;;2.90;;
32788;SDS011;19141;48.980;8.410;2022-07-21T11:49:43;3.17;;;2.83;;
32788;SDS011;19141;48.980;8.410;2022-07-21T11:54:37;4.25;;;2.78;;
32788;SDS011;19141;48.980;8.410;2022-07-21T11:57:08;2.88;;;2.40;;
32788;SDS011;19141;48.980;8.410;2022-07-21T11:59:34;3.40;;;2.43;;
32788;SDS011;19141;48.980;8.410;2022-07-21T12:02:08;3.25;;;2.95;;
32788;SDS011;19141;48.980;8.410;2022-07-21T12:07:16;3.83;;;2.60;;
32788;SDS011;19141;48.980;8.410;2022-07-21T12:09:58;4.30;;;2.70;;
32788;SDS011;19141;48.980;8.410;2022-07-21T12:12:29;2.65;;;2.45;;
32788;SDS011;19141;48.980;8.410;2022-07-21T12:17:40;2.95;;;2.50;;
32788;SDS011;19141;48.980;8.410;2022-07-21T12:20:11;3.80;;;2.33;;
32788;SDS011;19141;48.980;8.410;2022-07-21T12:22:38;3.90;;;2.90;;
32788;SDS011;19141;48.980;8.410;2022-07-21T12:25:15;2.67;;;2.33;;
32788;SDS011;19141;48.980;8.410;2022-07-21T12:27:45;2.60;;;2.40;;
32788;SDS011;19141;48.980;8.410;2022-07-21T12:33:01;2.90;;;2.40;;
32788;SDS011;19141;48.980;8.410;2022-07-21T12:35:28;3.45;;;2.65;;
32788;SDS011;19141;48.980;8.410;2022-07-21T12:37:55;2.90;;;2.30;;
32788;SDS011;19141;48.980;8.410;2022-07-21T12:40:26;3.30;;;2.22;;
32788;SDS011;19141;48.980;8.410;2022-07-21T12:48:41;3.67;;;2.45;;
32788;SDS011;19141;48.980;8.410;2022-07-21T12:51:11;2.65;;;2.28;;
32788;SDS011;19141;48.980;8.410;2022-07-21T12:53:40;2.60;;;2.35;;
32788;SDS011;19141;48.980;8.410;2022-07-21T12:56:08;2.70;;;2.45;;
32788;SDS011;19141;48.980;8.410;2022-07-21T12:58:35;3.60;;;2.33;;
32788;SDS011;19141;48.980;8.410;2022-07-21T13:01:02;2.40;;;2.20;;
32788;SDS011;19141;48.980;8.410;2022-07-21T13:05:54;3.80;;;2.30;;
32788;SDS011;19141;48.980;8.410;2022-07-21T13:08:20;2.50;;;2.13;;
32788;SDS011;19141;48.980;8.410;2022-07-21T13:10:45;2.60;;;2.07;;
32788;SDS011;19141;48.980;8.410;2022-07-21T13:13:11;2.67;;;2.40;;
32788;SDS011;19141;48.980;8.410;2022-07-21T13:15:36;3.50;;;2.13;;
32788;SDS011;19141;48.980;8.410;2022-07-21T13:18:02;2.50;;;2.00;;
32788;SDS011;19141;48.980;8.410;2022-07-21T13:20:27;3.37;;;2.40;;
32788;SDS011;19141;48.980;8.410;2022-07-21T13:22:53;2.80;;;2.60;;
32788;SDS011;19141;48.980;8.410;2022-07-21T13:25:18;4.73;;;2.47;;
32788;SDS011;19141;48.980;8.410;2022-07-21T13:27:44;3.87;;;2.57;;
32788;SDS011;19141;48.980;8.410;2022-07-21T13:30:09;2.67;;;2.47;;
32788;SDS011;19141;48.980;8.410;2022-07-21T13:32:35;2.73;;;2.40;;
32788;SDS011;19141;48.980;8.410;2022-07-21T13:35:02;3.35;;;2.38;;
32788;SDS011;19141;48.980;8.410;2022-07-21T13:37:28;2.75;;;2.30;;
32788;SDS011;19141;48.980;8.410;2022-07-21T13:39:54;4.80;;;2.20;;
32788;SDS011;19141;48.980;8.410;2022-07-21T13:42:19;3.37;;;2.70;;
32788;SDS011;19141;48.980;8.410;2022-07-21T13:44:48;3.27;;;2.33;;
32788;SDS011;19141;48.980;8.410;2022-07-21T13:47:13;4.20;;;2.15;;
32788;SDS011;19141;48.980;8.410;2022-07-21T13:49:38;2.97;;;2.35;;
32788;SDS011;19141;48.980;8.410;2022-07-21T13:52:04;3.10;;;2.50;;
32788;SDS011;19141;48.980;8.410;2022-07-21T13:54:29;3.33;;;2.37;;
32788;SDS011;19141;48.980;8.410;2022-07-21T13:56:55;3.08;;;2.50;;
32788;SDS011;19141;48.980;8.410;2022-07-21T13:59:22;4.57;;;2.90;;
32788;SDS011;19141;48.980;8.410;2022-07-21T14:01:47;3.63;;;2.80;;
32788;SDS011;19141;48.980;8.410;2022-07-21T14:04:13;5.00;;;3.83;;
32788;SDS011;19141;48.980;8.410;2022-07-21T14:06:39;3.17;;;2.53;;
32788;SDS011;19141;48.980;8.410;2022-07-21T14:09:04;4.10;;;2.67;;
32788;SDS011;19141;48.980;8.410;2022-07-21T14:11:30;3.13;;;2.55;;
32788;SDS011;19141;48.980;8.410;2022-07-21T14:13:56;3.40;;;2.30;;
32788;SDS011;19141;48.980;8.410;2022-07-21T14:16:21;3.78;;;2.80;;
32788;SDS011;19141;48.980;8.410;2022-07-21T14:18:47;3.42;;;2.88;;
32788;SDS011;19141;48.980;8.410;2022-07-21T14:21:13;3.10;;;2.75;;
32788;SDS011;19141;48.980;8.410;2022-07-21T14:23:39;2.88;;;2.45;;
32788;SDS011;19141;48.980;8.410;2022-07-21T14:26:04;3.65;;;3.28;;
32788;SDS011;19141;48.980;8.410;2022-07-21T14:28:30;3.25;;;2.67;;
32788;SDS011;19141;48.980;8.410;2022-07-21T14:30:55;3.10;;;2.63;;
32788;SDS011;19141;48.980;8.410;2022-07-21T14:33:21;3.83;;;3.15;;
32788;SDS011;19141;48.980;8.410;2022-07-21T14:35:46;3.55;;;2.50;;
32788;SDS011;19141;48.980;8.410;2022-07-21T14:38:12;3.63;;;2.85;;
32788;SDS011;19141;48.980;8.410;2022-07-21T14:40:37;4.63;;;2.80;;
32788;SDS011;19141;48.980;8.410;2022-07-21T14:43:03;4.30;;;2.90;;
32788;SDS011;19141;48.980;8.410;2022-07-21T14:45:29;5.07;;;3.00;;
32788;SDS011;19141;48.980;8.410;2022-07-21T14:47:55;3.65;;;2.63;;
32788;SDS011;19141;48.980;8.410;2022-07-21T14:50:23;3.83;;;3.15;;
32788;SDS011;19141;48.980;8.410;2022-07-21T14:52:50;4.28;;;3.25;;
32788;SDS011;19141;48.980;8.410;2022-07-21T14:55:15;3.78;;;2.78;;
32788;SDS011;19141;48.980;8.410;2022-07-21T14:57:41;4.50;;;2.72;;
32788;SDS011;19141;48.980;8.410;2022-07-21T15:00:07;3.42;;;3.13;;
32788;SDS011;19141;48.980;8.410;2022-07-21T15:02:35;3.83;;;2.65;;
32788;SDS011;19141;48.980;8.410;2022-07-21T15:05:00;3.50;;;3.20;;
32788;SDS011;19141;48.980;8.410;2022-07-21T15:07:26;3.63;;;2.80;;
32788;SDS011;19141;48.980;8.410;2022-07-21T15:09:52;4.13;;;2.58;;
32788;SDS011;19141;48.980;8.410;2022-07-21T15:12:17;5.50;;;3.17;;
32788;SDS011;19141;48.980;8.410;2022-07-21T15:14:43;4.35;;;3.20;;
32788;SDS011;19141;48.980;8.410;2022-07-21T15:17:08;3.03;;;2.72;;
32788;SDS011;19141;48.980;8.410;2022-07-21T15:19:34;3.47;;;3.17;;
32788;SDS011;19141;48.980;8.410;2022-07-21T15:21:59;3.88;;;3.58;;
32788;SDS011;19141;48.980;8.410;2022-07-21T15:24:25;4.03;;;2.95;;
32788;SDS011;19141;48.980;8.410;2022-07-21T15:26:51;4.10;;;3.22;;
32788;SDS011;19141;48.980;8.410;2022-07-21T15:29:16;4.60;;;4.05;;
32788;SDS011;19141;48.980;8.410;2022-07-21T15:31:42;3.33;;;2.75;;
32788;SDS011;19141;48.980;8.410;2022-07-21T15:34:09;3.35;;;3.05;;
32788;SDS011;19141;48.980;8.410;2022-07-21T15:36:35;6.10;;;3.80;;
32788;SDS011;19141;48.980;8.410;2022-07-21T15:39:01;3.45;;;3.15;;
32788;SDS011;19141;48.980;8.410;2022-07-21T15:41:27;4.20;;;3.53;;
32788;SDS011;19141;48.980;8.410;2022-07-21T15:43:53;3.97;;;3.30;;
32788;SDS011;19141;48.980;8.410;2022-07-21T15:46:19;5.03;;;3.50;;
32788;SDS011;19141;48.980;8.410;2022-07-21T15:48:44;5.55;;;3.80;;
32788;SDS011;19141;48.980;8.410;2022-07-21T15:51:10;3.80;;;3.33;;
32788;SDS011;19141;48.980;8.410;2022-07-21T15:53:35;3.25;;;2.95;;
32788;SDS011;19141;48.980;8.410;2022-07-21T15:56:02;4.97;;;3.83;;
32788;SDS011;19141;48.980;8.410;2022-07-21T16:00:55;4.38;;;3.85;;
32788;SDS011;19141;48.980;8.410;2022-07-21T16:03:21;3.80;;;3.35;;
32788;SDS011;19141;48.980;8.410;2022-07-21T16:05:47;5.13;;;3.40;;
32788;SDS011;19141;48.980;8.410;2022-07-21T16:08:13;5.47;;;3.63;;
32788;SDS011;19141;48.980;8.410;2022-07-21T16:10:38;3.60;;;3.30;;
32788;SDS011;19141;48.980;8.410;2022-07-21T16:13:04;6.60;;;4.32;;
32788;SDS011;19141;48.980;8.410;2022-07-21T16:15:29;7.68;;;4.10;;
32788;SDS011;19141;48.980;8.410;2022-07-21T16:17:55;3.90;;;3.47;;
32788;SDS011;19141;48.980;8.410;2022-07-21T16:20:20;4.05;;;3.40;;
32788;SDS011;19141;48.980;8.410;2022-07-21T16:22:46;4.37;;;3.70;;
32788;SDS011;19141;48.980;8.410;2022-07-21T16:25:13;4.43;;;3.65;;
32788;SDS011;19141;48.980;8.410;2022-07-21T16:27:40;5.53;;;3.40;;
32788;SDS011;19141;48.980;8.410;2022-07-21T16:30:06;4.53;;;3.90;;
32788;SDS011;19141;48.980;8.410;2022-07-21T16:32:32;4.63;;;3.92;;
32788;SDS011;19141;48.980;8.410;2022-07-21T16:34:57;4.75;;;3.63;;
32788;SDS011;19141;48.980;8.410;2022-07-21T16:37:23;4.28;;;3.55;;
32788;SDS011;19141;48.980;8.410;2022-07-21T16:39:48;5.20;;;3.63;;
32788;SDS011;19141;48.980;8.410;2022-07-21T16:42:15;4.97;;;4.15;;
32788;SDS011;19141;48.980;8.410;2022-07-21T16:44:41;4.30;;;3.90;;
32788;SDS011;19141;48.980;8.410;2022-07-21T16:47:06;4.15;;;3.75;;
32788;SDS011;19141;48.980;8.410;2022-07-21T16:49:32;4.22;;;3.40;;
32788;SDS011;19141;48.980;8.410;2022-07-21T16:51:57;5.63;;;3.63;;
32788;SDS011;19141;48.980;8.410;2022-07-21T16:54:23;5.63;;;3.88;;
32788;SDS011;19141;48.980;8.410;2022-07-21T16:56:48;5.35;;;4.30;;
32788;SDS011;19141;48.980;8.410;2022-07-21T16:59:14;4.57;;;3.58;;
32788;SDS011;19141;48.980;8.410;2022-07-21T17:01:39;3.60;;;3.30;;
32788;SDS011;19141;48.980;8.410;2022-07-21T17:04:05;4.03;;;3.63;;
32788;SDS011;19141;48.980;8.410;2022-07-21T17:06:30;4.65;;;3.60;;
32788;SDS011;19141;48.980;8.410;2022-07-21T17:08:56;4.28;;;3.60;;
32788;SDS011;19141;48.980;8.410;2022-07-21T17:11:22;5.90;;;3.95;;
32788;SDS011;19141;48.980;8.410;2022-07-21T17:13:47;3.85;;;3.30;;
32788;SDS011;19141;48.980;8.410;2022-07-21T17:16:13;6.22;;;3.90;;
32788;SDS011;19141;48.980;8.410;2022-07-21T17:18:38;4.40;;;3.67;;
32788;SDS011;19141;48.980;8.410;2022-07-21T17:21:04;4.97;;;3.75;;
32788;SDS011;19141;48.980;8.410;2022-07-21T17:23:33;5.05;;;3.40;;
32788;SDS011;19141;48.980;8.410;2022-07-21T17:25:59;3.78;;;3.10;;
32788;SDS011;19141;48.980;8.410;2022-07-21T17:28:24;4.82;;;3.50;;
32788;SDS011;19141;48.980;8.410;2022-07-21T17:30:50;4.88;;;3.83;;
32788;SDS011;19141;48.980;8.410;2022-07-21T17:33:15;5.13;;;3.72;;
32788;SDS011;19141;48.980;8.410;2022-07-21T17:35:41;5.05;;;3.70;;
32788;SDS011;19141;48.980;8.410;2022-07-21T17:38:07;9.50;;;3.38;;
32788;SDS011;19141;48.980;8.410;2022-07-21T17:40:33;4.60;;;3.83;;
32788;SDS011;19141;48.980;8.410;2022-07-21T17:43:00;6.55;;;5.13;;
32788;SDS011;19141;48.980;8.410;2022-07-21T17:45:26;5.57;;;3.90;;
32788;SDS011;19141;48.980;8.410;2022-07-21T17:47:51;5.50;;;3.70;;
32788;SDS011;19141;48.980;8.410;2022-07-21T17:50:17;4.10;;;3.60;;
32788;SDS011;19141;48.980;8.410;2022-07-21T17:52:43;5.40;;;3.03;;
32788;SDS011;19141;48.980;8.410;2022-07-21T17:55:08;4.45;;;3.50;;
32788;SDS011;19141;48.980;8.410;2022-07-21T17:57:35;4.53;;;3.33;;
32788;SDS011;19141;48.980;8.410;2022-07-21T18:00:19;5.22;;;3.90;;
32788;SDS011;19141;48.980;8.410;2022-07-21T18:02:45;6.47;;;3.45;;
32788;SDS011;19141;48.980;8.410;2022-07-21T18:05:12;4.18;;;3.60;;
32788;SDS011;19141;48.980;8.410;2022-07-21T18:07:37;4.07;;;3.47;;
32788;SDS011;19141;48.980;8.410;2022-07-21T18:10:03;5.13;;;3.35;;
32788;SDS011;19141;48.980;8.410;2022-07-21T18:12:30;4.03;;;3.60;;
32788;SDS011;19141;48.980;8.410;2022-07-21T18:14:55;5.55;;;3.80;;
32788;SDS011;19141;48.980;8.410;2022-07-21T18:17:21;4.57;;;3.53;;
32788;SDS011;19141;48.980;8.410;2022-07-21T18:19:47;5.60;;;3.90;;
32788;SDS011;19141;48.980;8.410;2022-07-21T18:22:12;7.55;;;3.88;;
32788;SDS011;19141;48.980;8.410;2022-07-21T18:24:38;5.55;;;3.88;;
32788;SDS011;19141;48.980;8.410;2022-07-21T18:27:03;4.55;;;3.72;;
32788;SDS011;19141;48.980;8.410;2022-07-21T18:29:29;5.40;;;3.35;;
32788;SDS011;19141;48.980;8.410;2022-07-21T18:31:54;5.35;;;4.85;;
32788;SDS011;19141;48.980;8.410;2022-07-21T18:34:20;4.30;;;3.88;;
32788;SDS011;19141;48.980;8.410;2022-07-21T18:36:45;5.13;;;3.95;;
32788;SDS011;19141;48.980;8.410;2022-07-21T18:39:11;4.72;;;4.00;;
32788;SDS011;19141;48.980;8.410;2022-07-21T18:41:36;4.95;;;3.83;;
32788;SDS011;19141;48.980;8.410;2022-07-21T18:44:02;5.40;;;4.30;;
32788;SDS011;19141;48.980;8.410;2022-07-21T18:46:28;5.53;;;4.05;;
32788;SDS011;19141;48.980;8.410;2022-07-21T18:48:54;6.25;;;4.40;;
32788;SDS011;19141;48.980;8.410;2022-07-21T18:51:20;6.20;;;4.35;;
32788;SDS011;19141;48.980;8.410;2022-07-21T18:53:46;5.60;;;4.22;;
32788;SDS011;19141;48.980;8.410;2022-07-21T18:56:11;5.22;;;4.00;;
32788;SDS011;19141;48.980;8.410;2022-07-21T18:58:37;5.60;;;4.28;;
32788;SDS011;19141;48.980;8.410;2022-07-21T19:01:03;5.33;;;3.90;;
32788;SDS011;19141;48.980;8.410;2022-07-21T19:03:30;5.80;;;4.53;;
32788;SDS011;19141;48.980;8.410;2022-07-21T19:05:56;4.60;;;4.15;;
32788;SDS011;19141;48.980;8.410;2022-07-21T19:08:22;4.90;;;4.30;;
32788;SDS011;19141;48.980;8.410;2022-07-21T19:10:47;6.70;;;4.75;;
32788;SDS011;19141;48.980;8.410;2022-07-21T19:13:13;6.30;;;3.90;;
32788;SDS011;19141;48.980;8.410;2022-07-21T19:15:38;5.70;;;4.50;;
32788;SDS011;19141;48.980;8.410;2022-07-21T19:18:04;6.05;;;4.60;;
32788;SDS011;19141;48.980;8.410;2022-07-21T19:20:29;6.72;;;5.55;;
32788;SDS011;19141;48.980;8.410;2022-07-21T19:22:54;6.82;;;3.90;;
32788;SDS011;19141;48.980;8.410;2022-07-21T19:25:20;5.63;;;4.50;;
32788;SDS011;19141;48.980;8.410;2022-07-21T19:27:45;5.10;;;3.72;;
32788;SDS011;19141;48.980;8.410;2022-07-21T19:30:11;4.97;;;4.38;;
32788;SDS011;19141;48.980;8.410;2022-07-21T19:32:40;7.18;;;4.30;;
32788;SDS011;19141;48.980;8.410;2022-07-21T19:35:05;6.65;;;4.80;;
32788;SDS011;19141;48.980;8.410;2022-07-21T19:37:31;6.05;;;4.97;;
32788;SDS011;19141;48.980;8.410;2022-07-21T19:39:56;7.65;;;5.55;;
32788;SDS011;19141;48.980;8.410;2022-07-21T19:42:22;5.57;;;4.28;;